createdAt,value
2023-05-20T00:02:24.940Z,96708.22
2023-05-20T00:04:52.941Z,96710.16
2023-05-20T00:07:20.859Z,96701.22
2023-05-20T00:09:48.740Z,96700.13
2023-05-20T00:12:16.591Z,96700.97
2023-05-20T00:14:44.612Z,96707.00
2023-05-20T00:17:13.906Z,96700.97
2023-05-20T00:19:41.843Z,96701.97
2023-05-20T00:22:09.930Z,96701.13
2023-05-20T00:24:37.875Z,96699.19
2023-05-20T00:27:06.009Z,96701.47
2023-05-20T00:29:35.124Z,96686.56
2023-05-20T00:32:03.218Z,96695.22
2023-05-20T00:34:32.592Z,96685.47
2023-05-20T00:37:00.481Z,96694.94
2023-05-20T00:39:30.308Z,96698.31
2023-05-20T00:42:00.454Z,96702.06
2023-05-20T00:44:28.357Z,96702.19
2023-05-20T00:46:56.879Z,96697.03
2023-05-20T00:49:24.806Z,96694.13
2023-05-20T00:51:54.172Z,96703.88
2023-05-20T00:54:23.259Z,96693.16
2023-05-20T00:56:51.556Z,96693.28
2023-05-20T00:59:19.986Z,96691.72
2023-05-20T01:01:48.513Z,96689.81
2023-05-20T01:04:16.605Z,96689.66
2023-05-20T01:06:44.472Z,96688.44
2023-05-20T01:09:14.795Z,96684.00
2023-05-20T01:11:49.253Z,96687.50
2023-05-20T01:14:20.138Z,96689.06
2023-05-20T01:16:51.031Z,96688.34
2023-05-20T01:19:29.813Z,96681.97
2023-05-20T01:22:00.316Z,96678.47
2023-05-20T01:24:29.588Z,96680.25
2023-05-20T01:26:58.234Z,96671.13
2023-05-20T01:29:26.462Z,96676.28
2023-05-20T01:32:02.122Z,96670.84
2023-05-20T01:34:31.384Z,96670.28
2023-05-20T01:36:59.537Z,96664.72
2023-05-20T01:39:30.798Z,96670.03
2023-05-20T01:41:59.530Z,96669.44
2023-05-20T01:44:28.237Z,96663.91
2023-05-20T01:46:56.299Z,96667.25
2023-05-20T01:49:24.341Z,96665.56
2023-05-20T01:51:52.240Z,96670.16
2023-05-20T01:54:20.162Z,96669.31
2023-05-20T01:56:51.372Z,96667.53
2023-05-20T01:59:19.348Z,96668.22
2023-05-20T02:01:47.389Z,96658.59
2023-05-20T02:04:19.283Z,96665.00
2023-05-20T02:06:48.023Z,96656.94
2023-05-20T02:09:17.876Z,96655.25
2023-05-20T02:11:46.101Z,96648.13
2023-05-20T02:14:15.512Z,96647.94
2023-05-20T02:16:43.757Z,96650.31
2023-05-20T02:19:14.444Z,96657.69
2023-05-20T02:21:44.051Z,96657.69
2023-05-20T02:24:11.995Z,96653.59
2023-05-20T02:26:40.004Z,96661.66
2023-05-20T02:29:09.578Z,96648.56
2023-05-20T02:31:38.849Z,96649.53
2023-05-20T02:34:06.780Z,96655.63
2023-05-20T02:36:34.812Z,96656.63
2023-05-20T02:39:03.571Z,96654.81
2023-05-20T02:41:32.579Z,96655.78
2023-05-20T02:44:00.755Z,96651.69
2023-05-20T02:46:30.410Z,96647.84
2023-05-20T02:48:59.730Z,96654.22
2023-05-20T02:51:28.268Z,96657.00
2023-05-20T02:53:56.196Z,96665.38
2023-05-20T02:56:24.686Z,96663.72
2023-05-20T02:58:52.668Z,96657.72
2023-05-20T03:01:20.808Z,96655.78
2023-05-20T03:03:49.022Z,96661.78
2023-05-20T03:06:18.381Z,96663.72
2023-05-20T03:08:46.496Z,96659.25
2023-05-20T03:11:16.148Z,96658.44
2023-05-20T03:13:44.039Z,96657.00
2023-05-20T03:16:13.141Z,96653.97
2023-05-20T03:18:41.239Z,96653.97
2023-05-20T03:21:09.258Z,96652.69
2023-05-20T03:23:38.528Z,96646.88
2023-05-20T03:26:07.036Z,96650.25
2023-05-20T03:28:35.152Z,96650.34
2023-05-20T03:31:04.571Z,96645.94
2023-05-20T03:33:36.047Z,96640.63
2023-05-20T03:36:05.258Z,96655.63
2023-05-20T03:38:33.586Z,96652.88
2023-05-20T03:41:03.054Z,96660.63
2023-05-20T03:43:31.919Z,96656.38
2023-05-20T03:45:59.932Z,96657.34
2023-05-20T03:48:27.846Z,96653.72
2023-05-20T03:50:55.818Z,96658.16
2023-05-20T03:53:23.764Z,96659.88
2023-05-20T03:55:52.140Z,96660.56
2023-05-20T03:58:22.328Z,96660.56
2023-05-20T04:00:51.304Z,96656.13
2023-05-20T04:03:19.446Z,96662.75
2023-05-20T04:05:49.051Z,96649.03
2023-05-20T04:08:22.084Z,96654.31
2023-05-20T04:10:50.068Z,96648.44
2023-05-20T04:13:18.005Z,96649.75
2023-05-20T04:15:48.584Z,96651.78
2023-05-20T04:18:17.051Z,96652.41
2023-05-20T04:20:45.720Z,96646.59
2023-05-20T04:23:15.500Z,96649.38
2023-05-20T04:25:44.652Z,96646.84
2023-05-20T04:28:14.153Z,96647.31
2023-05-20T04:30:42.322Z,96648.28
2023-05-20T04:33:13.140Z,96644.66
2023-05-20T04:35:42.845Z,96644.66
2023-05-20T04:38:12.205Z,96643.56
2023-05-20T04:40:40.805Z,96634.69
2023-05-20T04:43:10.540Z,96629.00
2023-05-20T04:45:40.398Z,96639.44
2023-05-20T04:48:09.584Z,96640.88
2023-05-20T04:50:41.918Z,96645.47
2023-05-20T04:53:09.855Z,96638.59
2023-05-20T04:55:39.096Z,96642.31
2023-05-20T04:58:08.257Z,96637.75
2023-05-20T05:00:36.302Z,96633.72
2023-05-20T05:03:04.728Z,96642.66
2023-05-20T05:05:35.339Z,96648.41
2023-05-20T05:08:04.942Z,96653.31
2023-05-20T05:10:33.717Z,96646.81
2023-05-20T05:13:01.681Z,96643.06
2023-05-20T05:15:29.829Z,96638.44
2023-05-20T05:17:58.019Z,96642.66
2023-05-20T05:20:26.447Z,96631.53
2023-05-20T05:22:54.438Z,96622.66
2023-05-20T05:25:23.761Z,96621.34
2023-05-20T05:27:51.723Z,96624.19
2023-05-20T05:30:19.798Z,96618.19
2023-05-20T05:32:48.337Z,96621.72
2023-05-20T05:35:16.791Z,96621.78
2023-05-20T05:37:44.722Z,96618.19
2023-05-20T05:40:13.960Z,96621.16
2023-05-20T05:42:43.313Z,96614.59
2023-05-20T05:45:12.397Z,96610.78
2023-05-20T05:47:40.687Z,96614.47
2023-05-20T05:50:10.125Z,96617.59
2023-05-20T05:52:38.639Z,96615.25
2023-05-20T05:55:10.641Z,96621.97
2023-05-20T05:57:38.604Z,96604.81
2023-05-20T06:00:10.790Z,96613.50
2023-05-20T06:02:48.187Z,96612.56
2023-05-20T06:05:30.188Z,96619.97
2023-05-20T06:07:58.758Z,96617.47
2023-05-20T06:10:27.252Z,96613.59
2023-05-20T06:12:56.409Z,96612.59
2023-05-20T06:15:26.353Z,96615.56
2023-05-20T06:17:54.275Z,96615.75
2023-05-20T06:20:22.345Z,96619.06
2023-05-20T06:22:50.348Z,96614.63
2023-05-20T06:25:18.726Z,96611.00
2023-05-20T06:27:47.409Z,96610.88
2023-05-20T06:30:18.927Z,96601.81
2023-05-20T06:32:48.314Z,96602.81
2023-05-20T06:35:17.617Z,96598.75
2023-05-20T06:37:45.558Z,96599.16
2023-05-20T06:40:14.120Z,96592.59
2023-05-20T06:42:44.225Z,96603.91
2023-05-20T06:45:13.914Z,96587.56
2023-05-20T06:47:53.353Z,96588.41
2023-05-20T06:50:21.619Z,96596.09
2023-05-20T06:52:49.850Z,96598.75
2023-05-20T06:55:18.096Z,96588.97
2023-05-20T06:57:46.003Z,96589.81
2023-05-20T07:00:15.284Z,96587.84
2023-05-20T07:02:45.050Z,96574.97
2023-05-20T07:05:16.919Z,96572.31
2023-05-20T07:07:44.936Z,96567.84
2023-05-20T07:10:13.029Z,96571.19
2023-05-20T07:12:42.174Z,96563.63
2023-05-20T07:15:10.996Z,96564.00
2023-05-20T07:17:40.008Z,96569.72
2023-05-20T07:20:09.187Z,96559.22
2023-05-20T07:22:38.748Z,96556.13
2023-05-20T07:25:21.805Z,96564.44
2023-05-20T07:27:50.793Z,96557.75
2023-05-20T07:30:19.950Z,96566.84
2023-05-20T07:33:07.794Z,96563.75
2023-05-20T07:35:36.824Z,96560.53
2023-05-20T07:38:06.869Z,96557.84
2023-05-20T07:40:36.865Z,96560.09
2023-05-20T07:43:05.070Z,96555.19
2023-05-20T07:45:33.384Z,96549.53
2023-05-20T07:48:03.016Z,96550.75
2023-05-20T07:50:31.535Z,96540.97
2023-05-20T07:52:59.488Z,96547.69
2023-05-20T07:55:31.763Z,96538.69
2023-05-20T07:58:00.934Z,96535.06
2023-05-20T08:00:30.696Z,96541.22
2023-05-20T08:03:03.958Z,96544.59
2023-05-20T08:05:43.100Z,96541.81
2023-05-20T08:08:11.573Z,96540.59
2023-05-20T08:10:55.417Z,96530.19
2023-05-20T08:13:26.764Z,96533.44
2023-05-20T08:15:55.211Z,96534.97
2023-05-20T08:18:23.141Z,96547.81
2023-05-20T08:20:51.308Z,96535.47
2023-05-20T08:23:19.288Z,96550.00
2023-05-20T08:25:48.312Z,96545.53
2023-05-20T08:28:19.133Z,96549.69
2023-05-20T08:30:48.560Z,96547.41
2023-05-20T08:33:16.835Z,96550.53
2023-05-20T08:35:44.807Z,96545.44
2023-05-20T08:38:12.661Z,96552.06
2023-05-20T08:40:40.605Z,96557.16
2023-05-20T08:43:08.657Z,96554.31
2023-05-20T08:45:39.356Z,96562.69
2023-05-20T08:48:12.897Z,96559.59
2023-05-20T08:50:40.876Z,96556.34
2023-05-20T08:53:09.038Z,96565.78
2023-05-20T08:55:43.059Z,96550.53
2023-05-20T08:58:11.281Z,96549.25
2023-05-20T09:00:42.030Z,96539.63
2023-05-20T09:03:10.077Z,96547.75
2023-05-20T09:05:38.271Z,96545.94
2023-05-20T09:08:07.937Z,96533.91
2023-05-20T09:10:37.152Z,96539.31
2023-05-20T09:13:06.185Z,96535.00
2023-05-20T09:15:35.815Z,96540.72
2023-05-20T09:18:08.010Z,96533.72
2023-05-20T09:20:38.155Z,96539.25
2023-05-20T09:23:08.906Z,96521.22
2023-05-20T09:25:38.280Z,96534.09
2023-05-20T09:28:07.551Z,96538.25
2023-05-20T09:30:35.662Z,96530.44
2023-05-20T09:33:07.853Z,96532.78
2023-05-20T09:35:38.095Z,96533.06
2023-05-20T09:38:07.590Z,96528.25
2023-05-20T09:40:37.727Z,96523.91
2023-05-20T09:43:07.276Z,96520.56
2023-05-20T09:45:36.687Z,96529.41
2023-05-20T09:48:09.225Z,96528.72
2023-05-20T09:50:37.867Z,96517.44
2023-05-20T09:53:06.509Z,96520.78
2023-05-20T09:55:34.717Z,96523.50
2023-05-20T09:58:04.131Z,96522.34
2023-05-20T10:00:33.037Z,96521.00
2023-05-20T10:03:02.026Z,96515.13
2023-05-20T10:05:34.335Z,96504.78
2023-05-20T10:08:37.279Z,96507.63
2023-05-20T10:11:14.869Z,96503.78
2023-05-20T10:13:53.627Z,96494.28
2023-05-20T10:16:31.110Z,96499.94
2023-05-20T10:19:06.590Z,96482.03
2023-05-20T10:21:36.439Z,96492.75
2023-05-20T10:24:08.453Z,96489.78
2023-05-20T10:26:37.656Z,96488.59
2023-05-20T10:29:16.577Z,96497.75
2023-05-20T10:31:50.631Z,96491.75
2023-05-20T10:34:19.989Z,96501.97
2023-05-20T10:36:59.625Z,96502.44
2023-05-20T10:39:28.946Z,96488.41
2023-05-20T10:42:08.239Z,96493.06
2023-05-20T10:44:43.552Z,96494.22
2023-05-20T10:49:45.290Z,96480.00
2023-05-20T10:52:15.813Z,96480.00
2023-05-20T10:54:49.397Z,96473.91
2023-05-20T10:57:20.485Z,96473.19
2023-05-20T10:59:49.364Z,96467.91
2023-05-20T11:02:18.956Z,96460.16
2023-05-20T11:04:48.024Z,96459.56
2023-05-20T11:07:28.402Z,96445.25
2023-05-20T11:09:56.364Z,96454.25
2023-05-20T11:12:25.435Z,96458.28
2023-05-20T11:14:53.529Z,96454.47
2023-05-20T11:17:21.749Z,96445.94
2023-05-20T11:19:50.043Z,96452.84
2023-05-20T11:22:17.922Z,96448.03
2023-05-20T11:24:47.577Z,96443.63
2023-05-20T11:27:15.659Z,96440.88
2023-05-20T11:29:43.829Z,96436.88
2023-05-20T11:32:11.820Z,96441.97
2023-05-20T11:34:40.714Z,96440.50
2023-05-20T11:37:09.047Z,96438.94
2023-05-20T11:39:38.095Z,96429.94
2023-05-20T11:42:07.565Z,96431.53
2023-05-20T11:44:35.418Z,96427.56
2023-05-20T11:47:04.580Z,96422.31
2023-05-20T11:49:40.844Z,96427.59
2023-05-20T11:52:11.760Z,96427.19
2023-05-20T11:54:40.221Z,96429.81
2023-05-20T11:57:09.510Z,96422.72
2023-05-20T11:59:37.645Z,96426.03
2023-05-20T12:02:05.584Z,96419.94
2023-05-20T12:04:33.484Z,96420.88
2023-05-20T12:07:01.891Z,96413.50
2023-05-20T12:09:29.770Z,96412.94
2023-05-20T12:11:57.686Z,96417.97
2023-05-20T12:14:27.052Z,96414.16
2023-05-20T12:16:55.170Z,96410.19
2023-05-20T12:19:23.121Z,96413.13
2023-05-20T12:21:52.717Z,96403.41
2023-05-20T12:24:20.608Z,96401.94
2023-05-20T12:26:48.872Z,96392.25
2023-05-20T12:29:16.777Z,96390.28
2023-05-20T12:31:46.046Z,96397.41
2023-05-20T12:34:14.014Z,96399.00
2023-05-20T12:36:42.385Z,96410.34
2023-05-20T12:39:11.066Z,96398.16
2023-05-20T12:41:39.100Z,96387.97
2023-05-20T12:44:06.982Z,96389.38
2023-05-20T12:46:35.099Z,96399.28
2023-05-20T12:49:04.696Z,96391.31
2023-05-20T12:51:32.588Z,96387.06
2023-05-20T12:54:00.576Z,96382.41
2023-05-20T12:56:28.537Z,96371.31
2023-05-20T12:58:56.496Z,96378.94
2023-05-20T13:01:24.493Z,96378.28
2023-05-20T13:03:53.430Z,96360.25
2023-05-20T13:06:22.694Z,96375.22
2023-05-20T13:08:50.822Z,96372.34
2023-05-20T13:11:18.699Z,96366.09
2023-05-20T13:13:46.605Z,96372.81
2023-05-20T13:16:16.668Z,96368.41
2023-05-20T13:18:44.706Z,96361.09
2023-05-20T13:21:12.607Z,96351.69
2023-05-20T13:23:42.803Z,96355.41
2023-05-20T13:26:11.073Z,96348.00
2023-05-20T13:28:38.927Z,96352.84
2023-05-20T13:31:07.747Z,96344.03
2023-05-20T13:33:35.766Z,96347.34
2023-05-20T13:36:03.908Z,96349.88
2023-05-20T13:38:32.684Z,96361.59
2023-05-20T13:41:03.171Z,96346.06
2023-05-20T13:43:33.225Z,96335.91
2023-05-20T13:46:01.306Z,96335.56
2023-05-20T13:48:29.410Z,96335.22
2023-05-20T13:50:59.723Z,96325.63
2023-05-20T13:53:27.666Z,96318.25
2023-05-20T13:55:55.741Z,96321.19
2023-05-20T13:58:25.003Z,96316.22
2023-05-20T14:00:53.734Z,96328.13
2023-05-20T14:03:22.056Z,96314.16
2023-05-20T14:05:50.026Z,96309.22
2023-05-20T14:08:17.914Z,96309.41
2023-05-20T14:10:45.764Z,96303.22
2023-05-20T14:13:13.632Z,96305.25
2023-05-20T14:15:43.735Z,96308.63
2023-05-20T14:18:11.770Z,96313.38
2023-05-20T14:20:39.770Z,96314.06
2023-05-20T14:23:07.660Z,96307.28
2023-05-20T14:25:36.489Z,96300.88
2023-05-20T14:28:04.444Z,96296.72
2023-05-20T14:30:32.597Z,96289.47
2023-05-20T14:33:02.230Z,96298.19
2023-05-20T14:35:30.215Z,96295.31
2023-05-20T14:37:58.175Z,96294.25
2023-05-20T14:40:26.078Z,96294.06
2023-05-20T14:42:53.972Z,96286.97
2023-05-20T14:45:21.847Z,96302.47
2023-05-20T14:47:49.823Z,96294.38
2023-05-20T14:50:19.200Z,96290.22
2023-05-20T14:52:47.064Z,96291.63
2023-05-20T14:55:14.970Z,96287.28
2023-05-20T14:57:43.051Z,96282.53
2023-05-20T15:00:14.678Z,96287.31
2023-05-20T15:02:42.713Z,96290.22
2023-05-20T15:05:11.972Z,96290.66
2023-05-20T15:07:41.581Z,96292.69
2023-05-20T15:10:10.085Z,96284.59
2023-05-20T15:12:37.954Z,96295.16
2023-05-20T15:15:06.838Z,96296.78
2023-05-20T15:17:34.755Z,96300.91
2023-05-20T15:20:02.981Z,96305.31
2023-05-20T15:22:30.808Z,96293.81
2023-05-20T15:25:00.043Z,96295.88
2023-05-20T15:27:29.633Z,96298.88
2023-05-20T15:29:57.582Z,96291.81
2023-05-20T15:32:25.702Z,96293.03
2023-05-20T15:34:53.673Z,96299.16
2023-05-20T15:37:22.056Z,96310.19
2023-05-20T15:39:50.001Z,96307.34
2023-05-20T15:42:19.328Z,96309.44
2023-05-20T15:44:47.350Z,96305.56
2023-05-20T15:47:15.212Z,96297.88
2023-05-20T15:49:43.204Z,96299.31
2023-05-20T15:52:11.124Z,96301.53
2023-05-20T15:54:39.038Z,96298.41
2023-05-20T15:57:07.659Z,96296.03
2023-05-20T15:59:37.007Z,96285.03
2023-05-20T16:02:04.987Z,96293.72
2023-05-20T16:04:33.639Z,96298.22
2023-05-20T16:07:01.888Z,96295.47
2023-05-20T16:09:29.887Z,96296.09
2023-05-20T16:11:57.843Z,96301.75
2023-05-20T16:14:25.862Z,96295.72
2023-05-20T16:16:55.166Z,96290.31
2023-05-20T16:19:23.260Z,96297.44
2023-05-20T16:21:51.367Z,96287.88
2023-05-20T16:24:19.271Z,96290.31
2023-05-20T16:26:47.171Z,96286.34
2023-05-20T16:29:16.645Z,96279.69
2023-05-20T16:31:46.607Z,96281.75
2023-05-20T16:34:16.863Z,96281.31
2023-05-20T16:36:46.302Z,96276.56
2023-05-20T16:39:14.681Z,96283.19
2023-05-20T16:41:43.226Z,96283.94
2023-05-20T16:44:11.487Z,96281.44
2023-05-20T16:46:39.416Z,96282.31
2023-05-20T16:49:07.418Z,96273.19
2023-05-20T16:51:36.722Z,96280.63
2023-05-20T16:54:04.972Z,96283.91
2023-05-20T16:56:33.402Z,96276.44
2023-05-20T16:59:01.290Z,96276.84
2023-05-20T17:01:29.639Z,96284.25
2023-05-20T17:03:57.685Z,96278.84
2023-05-20T17:06:25.632Z,96289.00
2023-05-20T17:08:54.957Z,96292.09
2023-05-20T17:11:22.838Z,96293.72
2023-05-20T17:13:50.715Z,96287.06
2023-05-20T17:16:18.850Z,96294.66
2023-05-20T17:18:48.312Z,96305.50
2023-05-20T17:21:20.205Z,96301.50
2023-05-20T17:23:48.138Z,96312.00
2023-05-20T17:26:17.605Z,96323.25
2023-05-20T17:28:45.531Z,96319.66
2023-05-20T17:31:13.399Z,96315.63
2023-05-20T17:33:41.329Z,96318.91
2023-05-20T17:36:09.258Z,96317.34
2023-05-20T17:38:37.170Z,96313.03
2023-05-20T17:41:05.231Z,96313.59
2023-05-20T17:43:34.737Z,96317.50
2023-05-20T17:46:02.686Z,96331.22
2023-05-20T17:48:30.595Z,96329.94
2023-05-20T17:50:59.725Z,96324.09
2023-05-20T17:53:27.543Z,96324.88
2023-05-20T17:55:55.587Z,96329.69
2023-05-20T17:58:25.144Z,96322.88
2023-05-20T18:00:54.616Z,96321.59
2023-05-20T18:03:23.096Z,96329.78
2023-05-20T18:05:52.290Z,96331.56
2023-05-20T18:08:21.732Z,96331.66
2023-05-20T18:10:49.630Z,96332.03
2023-05-20T18:13:17.490Z,96324.75
2023-05-20T18:15:45.666Z,96324.00
2023-05-20T18:18:15.190Z,96325.00
2023-05-20T18:20:43.114Z,96325.56
2023-05-20T18:23:11.515Z,96324.31
2023-05-20T18:25:41.753Z,96323.38
2023-05-20T18:28:11.213Z,96319.56
2023-05-20T18:30:39.071Z,96313.75
2023-05-20T18:33:07.375Z,96318.19
2023-05-20T18:35:36.726Z,96317.91
2023-05-20T18:38:04.682Z,96315.59
2023-05-20T18:40:32.629Z,96318.00
2023-05-20T18:43:00.532Z,96313.00
2023-05-20T18:45:28.482Z,96315.41
2023-05-20T18:47:59.253Z,96317.56
2023-05-20T18:50:27.583Z,96326.53
2023-05-20T18:52:56.964Z,96321.34
2023-05-20T18:55:24.928Z,96327.72
2023-05-20T18:57:52.920Z,96317.06
2023-05-20T19:00:21.216Z,96321.31
2023-05-20T19:02:49.166Z,96323.34
2023-05-20T19:05:17.076Z,96326.56
2023-05-20T19:07:45.020Z,96317.22
2023-05-20T19:10:15.183Z,96325.63
2023-05-20T19:12:43.698Z,96327.16
2023-05-20T19:15:12.840Z,96326.31
2023-05-20T19:17:40.805Z,96319.19
2023-05-20T19:20:10.515Z,96325.91
2023-05-20T19:22:38.731Z,96330.81
2023-05-20T19:25:07.707Z,96329.66
2023-05-20T19:27:36.970Z,96331.69
2023-05-20T19:30:05.158Z,96326.84
2023-05-20T19:32:33.238Z,96336.06
2023-05-20T19:35:01.293Z,96326.56
2023-05-20T19:37:29.287Z,96338.44
2023-05-20T19:39:57.223Z,96341.31
2023-05-20T19:42:25.163Z,96354.88
2023-05-20T19:44:54.536Z,96354.56
2023-05-20T19:47:22.795Z,96359.25
2023-05-20T19:49:50.946Z,96359.78
2023-05-20T19:52:19.971Z,96365.63
2023-05-20T19:54:48.902Z,96359.25
2023-05-20T19:57:16.983Z,96353.97
2023-05-20T19:59:44.969Z,96356.78
2023-05-20T20:02:14.827Z,96348.13
2023-05-20T20:04:44.087Z,96350.97
2023-05-20T20:07:12.237Z,96354.34
2023-05-20T20:09:40.723Z,96359.84
2023-05-20T20:12:09.291Z,96354.50
2023-05-20T20:14:38.093Z,96353.00
2023-05-20T20:17:06.241Z,96348.19
2023-05-20T20:19:35.565Z,96351.88
2023-05-20T20:22:03.670Z,96350.22
2023-05-20T20:24:31.642Z,96346.38
2023-05-20T20:26:59.719Z,96356.63
2023-05-20T20:29:27.597Z,96339.91
2023-05-20T20:31:56.041Z,96341.41
2023-05-20T20:34:24.049Z,96343.44
2023-05-20T20:36:54.797Z,96337.44
2023-05-20T20:39:25.071Z,96336.78
2023-05-20T20:41:54.491Z,96342.28
2023-05-20T20:44:22.737Z,96343.47
2023-05-20T20:46:51.504Z,96342.81
2023-05-20T20:49:19.904Z,96345.31
2023-05-20T20:51:48.558Z,96342.50
2023-05-20T20:54:17.895Z,96338.47
2023-05-20T20:56:47.144Z,96348.19
2023-05-20T20:59:16.008Z,96347.84
2023-05-20T21:01:45.075Z,96340.84
2023-05-20T21:04:13.925Z,96341.19
2023-05-20T21:06:45.835Z,96335.34
2023-05-20T21:09:14.149Z,96337.19
2023-05-20T21:11:45.186Z,96332.53
2023-05-20T21:14:14.027Z,96332.53
2023-05-20T21:16:43.139Z,96328.19
2023-05-20T21:19:11.178Z,96326.03
2023-05-20T21:21:39.655Z,96328.69
2023-05-20T21:24:07.853Z,96327.06
2023-05-20T21:26:35.803Z,96328.19
2023-05-20T21:29:05.966Z,96323.16
2023-05-20T21:31:33.948Z,96317.34
2023-05-20T21:34:02.111Z,96322.34
2023-05-20T21:36:30.686Z,96315.34
2023-05-20T21:38:58.688Z,96315.34
2023-05-20T21:41:27.244Z,96312.84
2023-05-20T21:43:55.163Z,96312.88
2023-05-20T21:46:24.434Z,96317.38
2023-05-20T21:48:52.376Z,96309.03
2023-05-20T21:51:20.260Z,96313.88
2023-05-20T21:53:48.222Z,96310.53
2023-05-20T21:56:16.196Z,96301.88
2023-05-20T21:58:44.088Z,96300.38
2023-05-20T22:01:12.082Z,96303.19
2023-05-20T22:03:47.952Z,96309.06
2023-05-20T22:06:17.616Z,96302.88
2023-05-20T22:08:45.480Z,96299.19
2023-05-20T22:11:13.362Z,96293.19
2023-05-20T22:13:41.522Z,96295.38
2023-05-20T22:16:09.998Z,96292.19
2023-05-20T22:18:38.504Z,96294.38
2023-05-20T22:21:07.881Z,96291.88
2023-05-20T22:23:35.966Z,96291.03
2023-05-20T22:26:04.896Z,96288.38
2023-05-20T22:28:32.841Z,96280.72
2023-05-20T22:31:00.690Z,96286.22
2023-05-20T22:33:28.648Z,96279.53
2023-05-20T22:35:58.086Z,96280.84
2023-05-20T22:38:29.187Z,96281.38
2023-05-20T22:40:57.032Z,96278.88
2023-05-20T22:43:24.965Z,96274.69
2023-05-20T22:45:52.889Z,96277.19
2023-05-20T22:48:23.006Z,96276.69
2023-05-20T22:50:51.188Z,96272.00
2023-05-20T22:53:19.082Z,96267.38
2023-05-20T22:55:48.440Z,96264.69
2023-05-20T22:58:16.479Z,96264.19
2023-05-20T23:00:44.979Z,96269.00
2023-05-20T23:03:13.330Z,96265.53
2023-05-20T23:05:41.236Z,96259.66
2023-05-20T23:08:09.119Z,96264.03
2023-05-20T23:10:36.980Z,96254.53
2023-05-20T23:13:06.430Z,96256.53
2023-05-20T23:15:34.472Z,96255.16
2023-05-20T23:18:02.626Z,96252.47
2023-05-20T23:20:30.545Z,96252.47
2023-05-20T23:23:00.128Z,96249.63
2023-05-20T23:25:31.483Z,96247.97
2023-05-20T23:27:59.577Z,96238.97
2023-05-20T23:30:29.531Z,96234.47
2023-05-20T23:32:57.873Z,96245.31
2023-05-20T23:35:25.783Z,96243.47
2023-05-20T23:37:53.664Z,96244.78
2023-05-20T23:40:21.609Z,96247.44
2023-05-20T23:42:49.444Z,96243.97
2023-05-20T23:45:17.408Z,96250.47
2023-05-20T23:47:46.913Z,96250.13
2023-05-20T23:50:14.935Z,96243.44
2023-05-20T23:52:42.790Z,96246.09
2023-05-20T23:55:14.271Z,96242.09
2023-05-20T23:57:42.284Z,96240.09
